Бегишево

Карта отелей и гостиниц, располагающихся рядом с аэропортом Бегишево :

Бегишево
Нижнекамск
Татарстан 55° 33' 52.6788" N, 52° 5' 33.1188" E
Код аэродрома ИКАО
UWKE
Код аэродрома RU
УВКЕ
Координаты
N55.56463° E052.09253°
Превышение над уровнем моря
196
Основная полоса
03R/21L
Курс магнитный
033,7/213,7
Длина основной ВПП
2500
Ширина основной ВПП
42
Покрытие основной ВПП
Твёрдое (асфальтобетон)
Освещение ВПП
Постоянное
Тип: 
Аэродром
Класс аэродрома: 
Международный
Принадлежность: 
ГА
Статус: 
Действующий
Страна: 
Россия
Регион: 
Татарстан
Город: 
Нижнекамск
Дополнительная информация: 
Оператор: ОАО "Аэропорт "Бегишево". ДПРМ: 370-"NA/NK", БПРМ: 749-"А/К".
Схемы аэропортов: 
Погода: 

Авиационная погода в Нижнекамске

Регион: 
Погода METAR: 
UWKE 221800Z 17003MPS 2200 -SN OVC020 M06/M07 Q1024 R21/420539 NOSIG RMK QFE751/1001
Время наблюдения
2022-01-22T18:00:00Z
Температура C
-6.0
Точка росы
-7.0
Направление ветра
170
Скорость ветра (узлы)
6
Метео видимость
1.37
Облачность
OVC
Нижняя граница облачности (футы)
2000
Явления погоды
-SN
Условия полета
IFR
Аэропорт подробнее: 
OVC – сплошная облачность;
-SN – слабый снег;

Найти трансфер

С помощью этой формы Вы можете найти трансфер из аэропорта Бегишево в город, аэропорт или вокзал:

Погода в аэропортах:

Авиационная погода в Чебоксарах

Регион: 
Погода METAR: 
UWKS 221800Z 14004MPS 1100 R06/P2000N SN BKN006 M08/M09 Q1018 R06/490337 NOSIG RMK QFE748
Время наблюдения
2022-01-22T18:00:00Z
Температура C
-8.0
Точка росы
-9.0
Направление ветра
140
Скорость ветра (узлы)
8
Метео видимость
0.68
Облачность
BKN
Нижняя граница облачности (футы)
600
Явления погоды
SN
Условия полета
LIFR
Аэропорт подробнее: 
BKN – значительная (рассеянная, разорванная) облачность;
SN – снег;

Авиационная погода в Храброво

Регион: 
Погода METAR: 
UMKK 221800Z 35006MPS 8000 2300E -SHSN SCT008 BKN016CB 01/M02 Q1023 R24/690195 NOSIG RMK QFE766/1021
Время наблюдения
2022-01-22T18:00:00Z
Температура C
1.0
Точка росы
-2.0
Направление ветра
350
Скорость ветра (узлы)
12
Метео видимость
4.97
Облачность
SCT
BKN
Нижняя граница облачности (футы)
800
1600
Явления погоды
-SHSN
Условия полета
MVFR
Аэропорт подробнее: 
SCT – разбросанная отдельная облачность; BKN – значительная (рассеянная, разорванная) облачность;
-SHSN - слабый ливневой снег;

Авиационная погода в Самаре

Регион: 
Погода METAR: 
UWWW 221800Z 14005MPS 9000 -SN SCT033 M07/M10 Q1023 R15/420240 NOSIG RMK QFE755/1007
Время наблюдения
2022-01-22T18:00:00Z
Температура C
-7.0
Точка росы
-10.0
Направление ветра
140
Скорость ветра (узлы)
10
Метео видимость
5.59
Облачность
SCT
Нижняя граница облачности (футы)
3300
Явления погоды
-SN
Условия полета
VFR
Аэропорт подробнее: 
SCT – разбросанная отдельная облачность;
-SN – слабый снег;

Авиационная погода в Пскове

Регион: 
Погода METAR: 
ULOO 221800Z 07003MPS 010V110 9000 -SN OVC014 M04/M06 Q1018 R01/490333 NOSIG RMK QFE759
Время наблюдения
2022-01-22T18:00:00Z
Температура C
-4.0
Точка росы
-6.0
Направление ветра
70
Скорость ветра (узлы)
6
Метео видимость
5.59
Облачность
OVC
Нижняя граница облачности (футы)
1400
Явления погоды
-SN
Условия полета
MVFR
OVC – сплошная облачность;
-SN – слабый снег;